createdAt,value
2022-10-19T00:02:34.000Z,8.52
2022-10-19T00:07:34.000Z,8.02
2022-10-19T00:12:35.000Z,7.79
2022-10-19T00:17:35.000Z,6.11
2022-10-19T00:22:34.000Z,6.55
2022-10-19T00:27:35.000Z,6.26
2022-10-19T00:37:34.000Z,5.74
2022-10-19T00:42:35.000Z,6.55
2022-10-19T00:47:35.000Z,6.98
2022-10-19T00:52:35.000Z,7.82
2022-10-19T00:57:34.000Z,9.74
2022-10-19T01:02:35.000Z,7.17
2022-10-19T01:07:35.000Z,7.17
2022-10-19T01:12:34.000Z,6.43
2022-10-19T01:17:35.000Z,6.21
2022-10-19T01:22:35.000Z,4.61
2022-10-19T01:27:35.000Z,4.93
2022-10-19T01:32:35.000Z,8.43
2022-10-19T01:37:35.000Z,7.47
2022-10-19T01:42:35.000Z,6.59
2022-10-19T01:47:34.000Z,6.4
2022-10-19T01:52:34.000Z,5.59
2022-10-19T01:57:35.000Z,5.1
2022-10-19T02:02:35.000Z,4.72
2022-10-19T02:07:35.000Z,7.77
2022-10-19T02:12:35.000Z,4.96
2022-10-19T02:17:34.000Z,5.05
2022-10-19T02:22:35.000Z,5.05
2022-10-19T02:27:35.000Z,5.21
2022-10-19T02:32:35.000Z,9.51
2022-10-19T02:42:34.000Z,13.91
2022-10-19T02:47:35.000Z,11.88
2022-10-19T02:52:35.000Z,11.32
2022-10-19T02:57:35.000Z,10.06
2022-10-19T03:02:34.000Z,10.48
2022-10-19T03:07:35.000Z,10.57
2022-10-19T03:12:34.000Z,10.18
2022-10-19T03:17:35.000Z,7.78
2022-10-19T03:22:34.000Z,6.8
2022-10-19T03:27:34.000Z,8.11
2022-10-19T03:32:35.000Z,9.6
2022-10-19T03:37:34.000Z,9.6
2022-10-19T03:42:35.000Z,11.54
2022-10-19T03:47:34.000Z,11.48
2022-10-19T03:52:35.000Z,10.58
2022-10-19T03:57:35.000Z,9.64
2022-10-19T04:02:34.000Z,10.52
2022-10-19T04:07:35.000Z,8.96
2022-10-19T04:12:34.000Z,11.64
2022-10-19T04:22:35.000Z,12.99
2022-10-19T04:27:35.000Z,12.01
2022-10-19T04:32:35.000Z,13.26
2022-10-19T04:42:35.000Z,13.97
2022-10-19T04:47:35.000Z,15.89
2022-10-19T04:52:35.000Z,16.49
2022-10-19T04:57:35.000Z,17.24
2022-10-19T05:02:34.000Z,16.54
2022-10-19T05:07:35.000Z,14.74
2022-10-19T05:12:34.000Z,14.74
2022-10-19T05:17:35.000Z,15.69
2022-10-19T05:22:34.000Z,15.6
2022-10-19T05:27:35.000Z,15.19
2022-10-19T05:32:35.000Z,19.05
2022-10-19T05:37:34.000Z,21.86
2022-10-19T05:42:35.000Z,20.36
2022-10-19T05:47:40.000Z,21.67
2022-10-19T05:52:35.000Z,23.63
2022-10-19T05:57:34.000Z,19.46
2022-10-19T06:02:34.000Z,21.49
2022-10-19T06:07:35.000Z,18.49
2022-10-19T06:12:35.000Z,18.49
2022-10-19T06:17:35.000Z,18.89
2022-10-19T06:22:34.000Z,19.18
2022-10-19T06:27:35.000Z,19.07
2022-10-19T06:32:35.000Z,24.48
2022-10-19T06:37:34.000Z,28.15
2022-10-19T06:42:34.000Z,26.47
2022-10-19T06:47:34.000Z,22.92
2022-10-19T06:52:34.000Z,22.16
2022-10-19T06:57:35.000Z,17.24
2022-10-19T07:02:34.000Z,20.36
2022-10-19T07:07:34.000Z,19.17
2022-10-19T07:12:34.000Z,20.14
2022-10-19T07:17:34.000Z,22.76
2022-10-19T07:22:38.000Z,25.41
2022-10-19T07:27:35.000Z,25.41
2022-10-19T07:32:34.000Z,26.29
2022-10-19T07:37:35.000Z,31.46
2022-10-19T07:42:35.000Z,29.42
2022-10-19T07:47:34.000Z,23.78
2022-10-19T07:52:34.000Z,20.71
2022-10-19T07:57:35.000Z,21.89
2022-10-19T08:02:49.000Z,24.05
2022-10-19T08:07:34.000Z,25.25
2022-10-19T08:12:35.000Z,25.9
2022-10-19T08:17:35.000Z,24.68
2022-10-19T08:22:35.000Z,26.16
2022-10-19T08:32:34.000Z,25.01
2022-10-19T08:37:54.000Z,26.44
2022-10-19T08:42:35.000Z,26.44
2022-10-19T08:47:35.000Z,26.26
2022-10-19T08:52:34.000Z,26.28
2022-10-19T09:02:34.000Z,21.8
2022-10-19T09:07:35.000Z,19.3
2022-10-19T09:12:35.000Z,20.01
2022-10-19T09:17:34.000Z,19.41
2022-10-19T09:22:35.000Z,19.41
2022-10-19T09:27:35.000Z,19.74
2022-10-19T09:32:35.000Z,16.59
2022-10-19T09:37:37.000Z,14.77
2022-10-19T09:42:35.000Z,14.23
2022-10-19T09:47:35.000Z,13.69
2022-10-19T09:52:35.000Z,14.91
2022-10-19T10:02:35.000Z,14.88
2022-10-19T10:07:34.000Z,14.55
2022-10-19T10:12:34.000Z,14.75
2022-10-19T10:17:34.000Z,21.01
2022-10-19T10:22:35.000Z,19.84
2022-10-19T10:27:35.000Z,26.3
2022-10-19T10:32:35.000Z,29.3
2022-10-19T10:37:35.000Z,29.3
2022-10-19T10:42:35.000Z,31.64
2022-10-19T10:47:35.000Z,28.72
2022-10-19T10:52:34.000Z,22.06
2022-10-19T10:57:35.000Z,18.85
2022-10-19T11:02:35.000Z,19.14
2022-10-19T11:07:35.000Z,19.4
2022-10-19T11:12:35.000Z,18.5
2022-10-19T11:17:34.000Z,17.72
2022-10-19T11:22:37.000Z,20.27
2022-10-19T11:27:35.000Z,19.19
2022-10-19T11:32:35.000Z,16.81
2022-10-19T11:37:35.000Z,16.6
2022-10-19T11:42:35.000Z,15.35
2022-10-19T11:52:35.000Z,15.76
2022-10-19T11:57:35.000Z,19.77
2022-10-19T12:02:35.000Z,30.21
2022-10-19T12:07:34.000Z,32.28
2022-10-19T12:12:35.000Z,29.18
2022-10-19T12:17:35.000Z,21.96
2022-10-19T12:22:35.000Z,19.09
2022-10-19T12:27:34.000Z,17
2022-10-19T12:32:35.000Z,16.92
2022-10-19T12:37:35.000Z,15.39
2022-10-19T12:42:35.000Z,15.67
2022-10-19T12:47:35.000Z,17.56
2022-10-19T12:52:35.000Z,17.63
2022-10-19T12:57:34.000Z,17.63
2022-10-19T13:02:35.000Z,15.22
2022-10-19T13:07:34.000Z,15.03
2022-10-19T13:12:36.000Z,13.16
2022-10-19T13:17:34.000Z,14.15
2022-10-19T13:22:34.000Z,15.68
2022-10-19T13:27:34.000Z,16.26
2022-10-19T13:32:35.000Z,16.79
2022-10-19T13:37:35.000Z,17.52
2022-10-19T13:42:35.000Z,25.65
2022-10-19T13:52:34.000Z,23.88
2022-10-19T13:57:35.000Z,19.26
2022-10-19T14:02:34.000Z,15.99
2022-10-19T14:07:35.000Z,15.42
2022-10-19T14:12:35.000Z,15.15
2022-10-19T14:17:35.000Z,15.15
2022-10-19T14:22:34.000Z,15.2
2022-10-19T14:27:34.000Z,10.65
2022-10-19T14:32:35.000Z,10.64
2022-10-19T14:42:34.000Z,12.71
2022-10-19T14:47:35.000Z,13.7
2022-10-19T14:52:35.000Z,11.79
2022-10-19T14:57:34.000Z,12.28
2022-10-19T15:02:35.000Z,13.86
2022-10-19T15:07:35.000Z,11.82
2022-10-19T15:12:34.000Z,13.35
2022-10-19T15:17:34.000Z,13.35
2022-10-19T15:22:34.000Z,13.09
2022-10-19T15:27:35.000Z,12.65
2022-10-19T15:32:35.000Z,11.88
2022-10-19T15:37:35.000Z,14.57
2022-10-19T15:42:35.000Z,16.47
2022-10-19T15:47:34.000Z,11.99
2022-10-19T15:52:35.000Z,12.55
2022-10-19T15:57:35.000Z,12.26
2022-10-19T16:02:35.000Z,11.11
2022-10-19T16:07:34.000Z,10.64
2022-10-19T16:12:35.000Z,9.76
2022-10-19T16:17:34.000Z,8.69
2022-10-19T16:22:34.000Z,8.15
2022-10-19T16:27:35.000Z,8.45
2022-10-19T16:37:34.000Z,8.94
2022-10-19T16:42:40.000Z,7.41
2022-10-19T16:47:34.000Z,8.39
2022-10-19T16:52:35.000Z,7.26
2022-10-19T17:02:35.000Z,9.88
2022-10-19T17:07:34.000Z,9.88
2022-10-19T17:12:34.000Z,10.08
2022-10-19T17:17:35.000Z,10.83
2022-10-19T17:22:34.000Z,12.83
2022-10-19T17:27:34.000Z,11.83
2022-10-19T17:32:34.000Z,12.28
2022-10-19T17:37:34.000Z,11.57
2022-10-19T17:42:35.000Z,14.08
2022-10-19T17:47:35.000Z,15.47
2022-10-19T17:52:35.000Z,13.7
2022-10-19T17:57:35.000Z,12.76
2022-10-19T18:02:35.000Z,11.86
2022-10-19T18:07:35.000Z,12.7
2022-10-19T18:12:34.000Z,10.56
2022-10-19T18:17:38.000Z,10.39
2022-10-19T18:22:34.000Z,10.39
2022-10-19T18:32:35.000Z,11.66
2022-10-19T18:37:34.000Z,10.32
2022-10-19T18:42:35.000Z,11.02
2022-10-19T18:47:35.000Z,10.7
2022-10-19T18:52:35.000Z,10.22
2022-10-19T19:02:45.000Z,11.35
2022-10-19T19:07:34.000Z,9.81
2022-10-19T19:12:34.000Z,8.54
2022-10-19T19:17:34.000Z,8.61
2022-10-19T19:22:35.000Z,8.14
2022-10-19T19:32:34.000Z,8.61
2022-10-19T19:37:35.000Z,8.92
2022-10-19T19:42:38.000Z,10.32
2022-10-19T19:47:34.000Z,8.59
2022-10-19T19:52:34.000Z,10.01
2022-10-19T19:57:35.000Z,8.11
2022-10-19T20:02:35.000Z,10.16
2022-10-19T20:12:35.000Z,12.11
2022-10-19T20:17:35.000Z,8.01
2022-10-19T20:22:34.000Z,9.79
2022-10-19T20:27:35.000Z,7.15
2022-10-19T20:32:35.000Z,6.45
2022-10-19T20:37:34.000Z,6.03
2022-10-19T20:42:35.000Z,7.59
2022-10-19T20:47:34.000Z,10.71
2022-10-19T20:52:35.000Z,11.55
2022-10-19T20:57:35.000Z,11.09
2022-10-19T21:02:35.000Z,11.09
2022-10-19T21:07:35.000Z,7.32
2022-10-19T21:12:34.000Z,6.11
2022-10-19T21:17:35.000Z,7.59
2022-10-19T21:22:34.000Z,8.55
2022-10-19T21:27:35.000Z,10.44
2022-10-19T21:32:35.000Z,7.14
2022-10-19T21:37:34.000Z,7.24
2022-10-19T21:42:35.000Z,6.87
2022-10-19T21:47:34.000Z,6.97
2022-10-19T21:52:34.000Z,7.88
2022-10-19T21:57:35.000Z,7.37
2022-10-19T22:02:35.000Z,8.07
2022-10-19T22:07:34.000Z,7.51
2022-10-19T22:12:34.000Z,8.13
2022-10-19T22:17:35.000Z,8.13
2022-10-19T22:22:34.000Z,7.89
2022-10-19T22:27:34.000Z,7.65
2022-10-19T22:32:35.000Z,7.32
2022-10-19T22:37:35.000Z,7.43
2022-10-19T22:42:35.000Z,7.53
2022-10-19T22:47:35.000Z,8.15
2022-10-19T22:52:35.000Z,7.71
2022-10-19T22:57:35.000Z,7.9
2022-10-19T23:02:34.000Z,7.53
2022-10-19T23:07:35.000Z,6.48
2022-10-19T23:12:35.000Z,5.84
2022-10-19T23:22:34.000Z,5.52
2022-10-19T23:27:35.000Z,4.81
2022-10-19T23:32:34.000Z,4.81
2022-10-19T23:37:35.000Z,4.59
2022-10-19T23:42:34.000Z,4.42
2022-10-19T23:47:35.000Z,4.7
2022-10-19T23:52:35.000Z,5.52
2022-10-19T23:57:35.000Z,5.33
